THA621 RPLL-VTBS
Flight info
| Callsign | THA621 |
|---|---|
| Flight time | N/A |
| Altitude | 38000 |
| Route | SIRCA2R SIRCA L628 IBOBI/N0477F340 L628 ARESI/K0898F380 L628 VEPAM/K0902F400 L628 PCA G474 ANINA/N0484F400 G474 VEMKO M633 DULEM TUMGA1C |
| Aircraft | A388/J-SADE2E3FGHIJ3J4J5M1RWXY/LB1D1 |
Departure
| Time | 2026-05-05 08:46 |
|---|---|
| Airport | Ninoy Aquino International Airport (RPLL) |
Arrival
| Time | N/A |
|---|---|
| Airport | Suvarnabhumi Airport (VTBS) |
| Time | Latitude | Longitude | Altitude | Speed | Heading |
|---|---|---|---|---|---|
| 2026-05-05 08:10 | 14.52181 | 121.00990 | 37 ft | 0 kts | 45° |
| 2026-05-05 08:25 | 14.52173 | 121.00982 | 47 ft | 3 kts | 50° |
| 2026-05-05 08:25 | 14.52161 | 121.00965 | 45 ft | 3 kts | 63° |
| 2026-05-05 08:25 | 14.52153 | 121.00946 | 44 ft | 3 kts | 76° |
| 2026-05-05 08:26 | 14.52150 | 121.00926 | 44 ft | 3 kts | 90° |
| 2026-05-05 08:26 | 14.52151 | 121.00905 | 44 ft | 3 kts | 102° |
| 2026-05-05 08:26 | 14.52157 | 121.00885 | 44 ft | 3 kts | 112° |
| 2026-05-05 08:26 | 14.52165 | 121.00866 | 44 ft | 3 kts | 121° |
| 2026-05-05 08:27 | 14.52177 | 121.00849 | 46 ft | 3 kts | 129° |
| 2026-05-05 08:27 | 14.52187 | 121.00837 | 46 ft | 1 kts | 134° |
| 2026-05-05 08:27 | 14.52188 | 121.00836 | 47 ft | 3 kts | 134° |
| 2026-05-05 08:29 | 14.52187 | 121.00836 | 47 ft | 0 kts | 134° |
| 2026-05-05 08:33 | 14.52183 | 121.00840 | 46 ft | 3 kts | 134° |
| 2026-05-05 08:34 | 14.52160 | 121.00865 | 44 ft | 7 kts | 135° |
| 2026-05-05 08:34 | 14.52111 | 121.00914 | 44 ft | 12 kts | 136° |
| 2026-05-05 08:34 | 14.52048 | 121.00977 | 47 ft | 14 kts | 136° |
| 2026-05-05 08:34 | 14.51976 | 121.01049 | 44 ft | 15 kts | 135° |
| 2026-05-05 08:35 | 14.51900 | 121.01130 | 47 ft | 16 kts | 134° |
| 2026-05-05 08:35 | 14.51819 | 121.01216 | 45 ft | 17 kts | 135° |
| 2026-05-05 08:35 | 14.51733 | 121.01305 | 44 ft | 18 kts | 135° |
| 2026-05-05 08:35 | 14.51647 | 121.01393 | 42 ft | 18 kts | 135° |
| 2026-05-05 08:36 | 14.51566 | 121.01475 | 41 ft | 13 kts | 135° |
| 2026-05-05 08:36 | 14.51496 | 121.01546 | 39 ft | 15 kts | 134° |
| 2026-05-05 08:36 | 14.51466 | 121.01577 | 39 ft | 7 kts | 135° |
| 2026-05-05 08:36 | 14.51430 | 121.01590 | 38 ft | 5 kts | 197° |
| 2026-05-05 08:37 | 14.51396 | 121.01560 | 38 ft | 0 kts | 227° |
| 2026-05-05 08:37 | 14.51378 | 121.01541 | 38 ft | 8 kts | 227° |
| 2026-05-05 08:37 | 14.51330 | 121.01483 | 37 ft | 13 kts | 232° |
| 2026-05-05 08:37 | 14.51274 | 121.01421 | 37 ft | 8 kts | 188° |
| 2026-05-05 08:38 | 14.51217 | 121.01449 | 36 ft | 11 kts | 135° |
| 2026-05-05 08:38 | 14.51158 | 121.01511 | 35 ft | 13 kts | 134° |
| 2026-05-05 08:38 | 14.51090 | 121.01582 | 34 ft | 14 kts | 134° |
| 2026-05-05 08:38 | 14.51018 | 121.01657 | 34 ft | 11 kts | 135° |
| 2026-05-05 08:39 | 14.50966 | 121.01678 | 35 ft | 7 kts | 192° |
| 2026-05-05 08:39 | 14.50928 | 121.01662 | 39 ft | 5 kts | 194° |
| 2026-05-05 08:39 | 14.50899 | 121.01663 | 41 ft | 3 kts | 166° |
| 2026-05-05 08:39 | 14.50869 | 121.01662 | 44 ft | 3 kts | 210° |
| 2026-05-05 08:40 | 14.50833 | 121.01610 | 49 ft | 23 kts | 240° |
| 2026-05-05 08:40 | 14.50741 | 121.01443 | 48 ft | 27 kts | 239° |
| 2026-05-05 08:40 | 14.50658 | 121.01296 | 53 ft | 22 kts | 241° |
| 2026-05-05 08:40 | 14.50582 | 121.01154 | 54 ft | 24 kts | 241° |
| 2026-05-05 08:41 | 14.50501 | 121.01002 | 57 ft | 25 kts | 240° |
| 2026-05-05 08:41 | 14.50410 | 121.00848 | 60 ft | 25 kts | 239° |
| 2026-05-05 08:41 | 14.50322 | 121.00690 | 65 ft | 25 kts | 240° |
| 2026-05-05 08:41 | 14.50232 | 121.00529 | 66 ft | 26 kts | 239° |
| 2026-05-05 08:42 | 14.50139 | 121.00364 | 85 ft | 27 kts | 240° |
| 2026-05-05 08:42 | 14.50045 | 121.00197 | 87 ft | 27 kts | 240° |
| 2026-05-05 08:42 | 14.49970 | 121.00062 | 89 ft | 13 kts | 240° |
| 2026-05-05 08:42 | 14.49936 | 120.99999 | 90 ft | 10 kts | 240° |
| 2026-05-05 08:43 | 14.49890 | 120.99964 | 90 ft | 8 kts | 177° |
| 2026-05-05 08:43 | 14.49839 | 120.99987 | 93 ft | 9 kts | 148° |
| 2026-05-05 08:43 | 14.49803 | 121.00034 | 93 ft | 8 kts | 87° |
| 2026-05-05 08:43 | 14.49828 | 121.00089 | 92 ft | 10 kts | 59° |
| 2026-05-05 08:44 | 14.49837 | 121.00105 | 91 ft | 0 kts | 59° |
| 2026-05-05 08:45 | 14.49839 | 121.00109 | 91 ft | 7 kts | 59° |
| 2026-05-05 08:45 | 14.49975 | 121.00351 | 84 ft | 79 kts | 60° |
| 2026-05-05 08:45 | 14.50363 | 121.01050 | 61 ft | 140 kts | 60° |
| 2026-05-05 08:45 | 14.50918 | 121.02040 | 150 ft | 171 kts | 62° |
| 2026-05-05 08:46 | 14.51515 | 121.03113 | 642 ft | 172 kts | 62° |
| 2026-05-05 08:46 | 14.52107 | 121.04174 | 1205 ft | 168 kts | 63° |
| 2026-05-05 08:46 | 14.52691 | 121.05219 | 1753 ft | 168 kts | 62° |
| 2026-05-05 08:46 | 14.53291 | 121.06312 | 2141 ft | 180 kts | 61° |
| 2026-05-05 08:47 | 14.53938 | 121.07476 | 2363 ft | 196 kts | 61° |
| 2026-05-05 08:47 | 14.54673 | 121.08781 | 2648 ft | 222 kts | 61° |
| 2026-05-05 08:47 | 14.55475 | 121.10238 | 2951 ft | 245 kts | 62° |
| 2026-05-05 08:47 | 14.56325 | 121.11770 | 3739 ft | 247 kts | 57° |
| 2026-05-05 08:48 | 14.57554 | 121.12998 | 4547 ft | 254 kts | 31° |
| 2026-05-05 08:48 | 14.59267 | 121.13504 | 5338 ft | 264 kts | 5° |
| 2026-05-05 08:48 | 14.61127 | 121.13498 | 6090 ft | 269 kts | 2° |
| 2026-05-05 08:48 | 14.63015 | 121.13480 | 6842 ft | 272 kts | 2° |
| 2026-05-05 08:49 | 14.64916 | 121.13475 | 7592 ft | 275 kts | 2° |
| 2026-05-05 08:49 | 14.66836 | 121.13403 | 8295 ft | 281 kts | 351° |
| 2026-05-05 08:49 | 14.68646 | 121.12604 | 9049 ft | 288 kts | 325° |
| 2026-05-05 08:49 | 14.69986 | 121.11047 | 9794 ft | 295 kts | 299° |
| 2026-05-05 08:50 | 14.70584 | 121.09020 | 10475 ft | 299 kts | 275° |
| 2026-05-05 08:50 | 14.70537 | 121.06875 | 11186 ft | 301 kts | 264° |
| 2026-05-05 08:50 | 14.70319 | 121.04712 | 11911 ft | 303 kts | 263° |
| 2026-05-05 08:50 | 14.70143 | 121.02556 | 12584 ft | 306 kts | 266° |
| 2026-05-05 08:51 | 14.69961 | 121.00354 | 13247 ft | 309 kts | 260° |
| 2026-05-05 08:51 | 14.69464 | 120.98193 | 13921 ft | 311 kts | 250° |
| 2026-05-05 08:51 | 14.68688 | 120.96092 | 14432 ft | 319 kts | 248° |
| 2026-05-05 08:51 | 14.67876 | 120.93886 | 14580 ft | 337 kts | 249° |
| 2026-05-05 08:52 | 14.67039 | 120.91554 | 14735 ft | 355 kts | 249° |
| 2026-05-05 08:52 | 14.66166 | 120.89102 | 14884 ft | 372 kts | 249° |
| 2026-05-05 08:52 | 14.65261 | 120.86567 | 15275 ft | 379 kts | 249° |
| 2026-05-05 08:52 | 14.64344 | 120.84002 | 15878 ft | 381 kts | 249° |
| 2026-05-05 08:53 | 14.63419 | 120.81426 | 16437 ft | 383 kts | 249° |
| 2026-05-05 08:53 | 14.62486 | 120.78834 | 17016 ft | 386 kts | 249° |
| 2026-05-05 08:53 | 14.61547 | 120.76228 | 17559 ft | 388 kts | 249° |
| 2026-05-05 08:53 | 14.60603 | 120.73610 | 18115 ft | 390 kts | 249° |
| 2026-05-05 08:54 | 14.59655 | 120.70981 | 18561 ft | 393 kts | 249° |
| 2026-05-05 08:54 | 14.58698 | 120.68329 | 19025 ft | 395 kts | 249° |
| 2026-05-05 08:54 | 14.57746 | 120.65691 | 19438 ft | 398 kts | 249° |
| 2026-05-05 08:54 | 14.56777 | 120.63007 | 19891 ft | 400 kts | 249° |
| 2026-05-05 08:55 | 14.55802 | 120.60307 | 20347 ft | 402 kts | 249° |
| 2026-05-05 08:55 | 14.54820 | 120.57590 | 20757 ft | 405 kts | 249° |
| 2026-05-05 08:55 | 14.53830 | 120.54851 | 21183 ft | 407 kts | 249° |
| 2026-05-05 08:55 | 14.52835 | 120.52101 | 21617 ft | 410 kts | 249° |
| 2026-05-05 08:56 | 14.51836 | 120.49337 | 22040 ft | 412 kts | 249° |
| 2026-05-05 08:56 | 14.50842 | 120.46590 | 22430 ft | 415 kts | 249° |
| 2026-05-05 08:56 | 14.49829 | 120.43794 | 22858 ft | 417 kts | 249° |
| 2026-05-05 08:56 | 14.48810 | 120.40982 | 23254 ft | 419 kts | 249° |
| 2026-05-05 08:57 | 14.47788 | 120.38161 | 23637 ft | 421 kts | 249° |
| 2026-05-05 08:57 | 14.46793 | 120.35304 | 23986 ft | 423 kts | 252° |
| 2026-05-05 08:57 | 14.46097 | 120.32341 | 24326 ft | 426 kts | 259° |
| 2026-05-05 08:57 | 14.45750 | 120.29299 | 24644 ft | 429 kts | 265° |
| 2026-05-05 08:58 | 14.45558 | 120.26219 | 24967 ft | 431 kts | 265° |
| 2026-05-05 08:58 | 14.45346 | 120.23123 | 25312 ft | 433 kts | 265° |
| 2026-05-05 08:58 | 14.45125 | 120.20018 | 25638 ft | 435 kts | 265° |
| 2026-05-05 08:58 | 14.44904 | 120.16935 | 25971 ft | 437 kts | 265° |
| 2026-05-05 08:59 | 14.44679 | 120.13793 | 26309 ft | 440 kts | 265° |
| 2026-05-05 08:59 | 14.44453 | 120.10636 | 26673 ft | 442 kts | 265° |
| 2026-05-05 08:59 | 14.44227 | 120.07466 | 27031 ft | 444 kts | 265° |
| 2026-05-05 08:59 | 14.44000 | 120.04281 | 27395 ft | 447 kts | 265° |
| 2026-05-05 09:00 | 14.43771 | 120.01080 | 27782 ft | 449 kts | 265° |
| 2026-05-05 09:00 | 14.43539 | 119.97852 | 28178 ft | 452 kts | 265° |
| 2026-05-05 09:00 | 14.43306 | 119.94609 | 28575 ft | 454 kts | 265° |
| 2026-05-05 09:00 | 14.43072 | 119.91353 | 28988 ft | 457 kts | 265° |
| 2026-05-05 09:01 | 14.42835 | 119.88067 | 29417 ft | 460 kts | 265° |
| 2026-05-05 09:01 | 14.42596 | 119.84763 | 29861 ft | 463 kts | 265° |
| 2026-05-05 09:01 | 14.42356 | 119.81443 | 30263 ft | 465 kts | 265° |
| 2026-05-05 09:01 | 14.42114 | 119.78112 | 30736 ft | 466 kts | 265° |
| 2026-05-05 09:02 | 14.41871 | 119.74773 | 31161 ft | 468 kts | 265° |
| 2026-05-05 09:02 | 14.41627 | 119.71423 | 31602 ft | 469 kts | 265° |
| 2026-05-05 09:02 | 14.41381 | 119.68055 | 32032 ft | 471 kts | 265° |
| 2026-05-05 09:02 | 14.41135 | 119.64684 | 32449 ft | 473 kts | 265° |
| 2026-05-05 09:03 | 14.40886 | 119.61287 | 32795 ft | 477 kts | 265° |
| 2026-05-05 09:03 | 14.40388 | 119.54505 | 32831 ft | 476 kts | 265° |
| 2026-05-05 09:04 | 14.39797 | 119.47700 | 32832 ft | 475 kts | 259° |
| 2026-05-05 09:04 | 14.38890 | 119.44436 | 32804 ft | 471 kts | 248° |
| 2026-05-05 09:04 | 14.37404 | 119.41441 | 32406 ft | 468 kts | 237° |
| 2026-05-05 09:04 | 14.35526 | 119.38708 | 31810 ft | 466 kts | 236° |
| 2026-05-05 09:05 | 14.33598 | 119.36040 | 31198 ft | 464 kts | 227° |
| 2026-05-05 09:05 | 14.31216 | 119.33810 | 30665 ft | 461 kts | 216° |
| 2026-05-05 09:05 | 14.28461 | 119.32157 | 30129 ft | 457 kts | 204° |
| 2026-05-05 09:05 | 14.25458 | 119.31144 | 29561 ft | 453 kts | 192° |
| 2026-05-05 09:06 | 14.22342 | 119.30810 | 28975 ft | 450 kts | 179° |
| 2026-05-05 09:06 | 14.19248 | 119.31164 | 28400 ft | 446 kts | 167° |
| 2026-05-05 09:06 | 14.16322 | 119.32185 | 27835 ft | 443 kts | 155° |
| 2026-05-05 09:06 | 14.13700 | 119.33826 | 27324 ft | 441 kts | 143° |
| 2026-05-05 09:07 | 14.11504 | 119.35968 | 26616 ft | 442 kts | 131° |
| 2026-05-05 09:07 | 14.09718 | 119.38569 | 25700 ft | 448 kts | 120° |
| 2026-05-05 09:07 | 14.08471 | 119.41526 | 24802 ft | 454 kts | 108° |
| 2026-05-05 09:07 | 14.07845 | 119.44727 | 23918 ft | 459 kts | 96° |
| 2026-05-05 09:08 | 14.07881 | 119.48025 | 22986 ft | 462 kts | 83° |
| 2026-05-05 09:08 | 14.08560 | 119.51257 | 21896 ft | 461 kts | 73° |
| 2026-05-05 09:08 | 14.09571 | 119.54378 | 20888 ft | 455 kts | 72° |
| 2026-05-05 09:08 | 14.10552 | 119.57450 | 19953 ft | 448 kts | 73° |
| 2026-05-05 09:09 | 14.11424 | 119.60518 | 19044 ft | 442 kts | 75° |
| 2026-05-05 09:09 | 14.12204 | 119.63552 | 18157 ft | 435 kts | 76° |
| 2026-05-05 09:09 | 14.12930 | 119.66559 | 17158 ft | 429 kts | 77° |
| 2026-05-05 09:09 | 14.13626 | 119.69524 | 16178 ft | 423 kts | 77° |
| 2026-05-05 09:10 | 14.14307 | 119.72453 | 15240 ft | 417 kts | 77° |
| 2026-05-05 09:10 | 14.14978 | 119.75337 | 14317 ft | 411 kts | 77° |
| 2026-05-05 09:10 | 14.15638 | 119.78175 | 13397 ft | 405 kts | 77° |
| 2026-05-05 09:10 | 14.16290 | 119.80971 | 12409 ft | 398 kts | 77° |
| 2026-05-05 09:11 | 14.16934 | 119.83728 | 11437 ft | 392 kts | 77° |
| 2026-05-05 09:11 | 14.17566 | 119.86434 | 10501 ft | 385 kts | 77° |
| 2026-05-05 09:11 | 14.18182 | 119.89077 | 9959 ft | 369 kts | 77° |
| 2026-05-05 09:11 | 14.18762 | 119.91565 | 9725 ft | 346 kts | 77° |
| 2026-05-05 09:12 | 14.19306 | 119.93899 | 9515 ft | 324 kts | 77° |
| 2026-05-05 09:12 | 14.19809 | 119.96061 | 9324 ft | 305 kts | 77° |
| 2026-05-05 09:12 | 14.20288 | 119.98122 | 9152 ft | 286 kts | 77° |
| 2026-05-05 09:12 | 14.20743 | 120.00082 | 8723 ft | 278 kts | 77° |
| 2026-05-05 09:13 | 14.21191 | 120.02016 | 8161 ft | 276 kts | 77° |
| 2026-05-05 09:13 | 14.21636 | 120.03935 | 7636 ft | 274 kts | 77° |
| 2026-05-05 09:13 | 14.22076 | 120.05834 | 7161 ft | 269 kts | 77° |
| 2026-05-05 09:13 | 14.22500 | 120.07658 | 7007 ft | 253 kts | 77° |
| 2026-05-05 09:14 | 14.22893 | 120.09347 | 6975 ft | 232 kts | 78° |
| 2026-05-05 09:14 | 14.23258 | 120.10914 | 6983 ft | 229 kts | 78° |
| 2026-05-05 09:14 | 14.23630 | 120.12528 | 6981 ft | 230 kts | 78° |
| 2026-05-05 09:14 | 14.23999 | 120.14121 | 6980 ft | 227 kts | 78° |
| 2026-05-05 09:15 | 14.24365 | 120.15703 | 6983 ft | 226 kts | 78° |
| 2026-05-05 09:15 | 14.24726 | 120.17262 | 6986 ft | 227 kts | 77° |
| 2026-05-05 09:15 | 14.25092 | 120.18843 | 6983 ft | 227 kts | 77° |
| 2026-05-05 09:15 | 14.25458 | 120.20426 | 6983 ft | 227 kts | 77° |
| 2026-05-05 09:16 | 14.25825 | 120.22009 | 6983 ft | 227 kts | 77° |
| 2026-05-05 09:16 | 14.26191 | 120.23594 | 6986 ft | 227 kts | 77° |
| 2026-05-05 09:16 | 14.26563 | 120.25200 | 6982 ft | 227 kts | 77° |
| 2026-05-05 09:16 | 14.26925 | 120.26765 | 6978 ft | 227 kts | 77° |
| 2026-05-05 09:17 | 14.27291 | 120.28348 | 6987 ft | 227 kts | 77° |
| 2026-05-05 09:17 | 14.27658 | 120.29939 | 6987 ft | 228 kts | 77° |
| 2026-05-05 09:17 | 14.28024 | 120.31523 | 6988 ft | 227 kts | 77° |
| 2026-05-05 09:17 | 14.28391 | 120.33110 | 6986 ft | 228 kts | 77° |
| 2026-05-05 09:18 | 14.28758 | 120.34699 | 6987 ft | 228 kts | 77° |
| 2026-05-05 09:18 | 14.29002 | 120.35760 | 6987 ft | 228 kts | 77° |
| 2026-05-05 09:18 | 14.29369 | 120.37349 | 6991 ft | 228 kts | 77° |
| 2026-05-05 09:18 | 14.29737 | 120.38946 | 6989 ft | 229 kts | 77° |
| 2026-05-05 09:19 | 14.30106 | 120.40545 | 6986 ft | 229 kts | 77° |
| 2026-05-05 09:19 | 14.30595 | 120.42667 | 6988 ft | 229 kts | 77° |
| 2026-05-05 09:19 | 14.30963 | 120.44262 | 6990 ft | 229 kts | 77° |
| 2026-05-05 09:19 | 14.31211 | 120.45340 | 6990 ft | 229 kts | 77° |
| 2026-05-05 09:20 | 14.31581 | 120.46942 | 6991 ft | 228 kts | 77° |
| 2026-05-05 09:20 | 14.31947 | 120.48533 | 6989 ft | 228 kts | 77° |
| 2026-05-05 09:20 | 14.32308 | 120.50102 | 6988 ft | 228 kts | 77° |
| 2026-05-05 09:20 | 14.32673 | 120.51690 | 6993 ft | 228 kts | 77° |
| 2026-05-05 09:21 | 14.33039 | 120.53282 | 6989 ft | 228 kts | 77° |
| 2026-05-05 09:21 | 14.33405 | 120.54874 | 6996 ft | 229 kts | 77° |
| 2026-05-05 09:21 | 14.33771 | 120.56465 | 6966 ft | 227 kts | 77° |
| 2026-05-05 09:21 | 14.34138 | 120.58064 | 6768 ft | 233 kts | 77° |
| 2026-05-05 09:22 | 14.34510 | 120.59684 | 6607 ft | 230 kts | 77° |
| 2026-05-05 09:22 | 14.34876 | 120.61275 | 6449 ft | 225 kts | 77° |
| 2026-05-05 09:22 | 14.35237 | 120.62849 | 6199 ft | 225 kts | 77° |
| 2026-05-05 09:22 | 14.35598 | 120.64421 | 5960 ft | 225 kts | 77° |
| 2026-05-05 09:23 | 14.35951 | 120.65961 | 5748 ft | 223 kts | 77° |
| 2026-05-05 09:23 | 14.36312 | 120.67536 | 5492 ft | 222 kts | 77° |
| 2026-05-05 09:23 | 14.36665 | 120.69078 | 5275 ft | 220 kts | 77° |
| 2026-05-05 09:23 | 14.37013 | 120.70592 | 5019 ft | 220 kts | 77° |
| 2026-05-05 09:24 | 14.37363 | 120.72121 | 4798 ft | 218 kts | 77° |
| 2026-05-05 09:24 | 14.37707 | 120.73621 | 4660 ft | 213 kts | 77° |
| 2026-05-05 09:24 | 14.38052 | 120.75128 | 4252 ft | 220 kts | 77° |
| 2026-05-05 09:24 | 14.38411 | 120.76696 | 3735 ft | 227 kts | 77° |
| 2026-05-05 09:25 | 14.38779 | 120.78290 | 3290 ft | 227 kts | 78° |
| 2026-05-05 09:25 | 14.39133 | 120.79844 | 3041 ft | 216 kts | 77° |
| 2026-05-05 09:25 | 14.39485 | 120.81289 | 3000 ft | 199 kts | 73° |
| 2026-05-05 09:25 | 14.40030 | 120.82543 | 3000 ft | 184 kts | 61° |
| 2026-05-05 09:26 | 14.40669 | 120.83608 | 3013 ft | 170 kts | 62° |
| 2026-05-05 09:26 | 14.41258 | 120.84625 | 3016 ft | 158 kts | 63° |
| 2026-05-05 09:26 | 14.41796 | 120.85587 | 3000 ft | 156 kts | 63° |
| 2026-05-05 09:26 | 14.42334 | 120.86567 | 3004 ft | 158 kts | 63° |
| 2026-05-05 09:27 | 14.42882 | 120.87559 | 2945 ft | 160 kts | 66° |
| 2026-05-05 09:27 | 14.43445 | 120.88545 | 2614 ft | 161 kts | 66° |
| 2026-05-05 09:27 | 14.44007 | 120.89531 | 2292 ft | 157 kts | 63° |
| 2026-05-05 09:27 | 14.44511 | 120.90490 | 2067 ft | 146 kts | 64° |
| 2026-05-05 09:28 | 14.45004 | 120.91365 | 1881 ft | 136 kts | 63° |
| 2026-05-05 09:28 | 14.45470 | 120.92222 | 1711 ft | 138 kts | 64° |
| 2026-05-05 09:28 | 14.45951 | 120.93084 | 1533 ft | 138 kts | 62° |
| 2026-05-05 09:28 | 14.46424 | 120.93944 | 1364 ft | 140 kts | 63° |
| 2026-05-05 09:29 | 14.46909 | 120.94822 | 1176 ft | 138 kts | 64° |
| 2026-05-05 09:29 | 14.47382 | 120.95673 | 1008 ft | 135 kts | 66° |
| 2026-05-05 09:29 | 14.47847 | 120.96508 | 837 ft | 135 kts | 68° |
| 2026-05-05 09:29 | 14.48316 | 120.97359 | 695 ft | 138 kts | 65° |
| 2026-05-05 09:30 | 14.48789 | 120.98211 | 514 ft | 137 kts | 67° |
| 2026-05-05 09:30 | 14.49270 | 120.99076 | 372 ft | 141 kts | 67° |
| 2026-05-05 09:30 | 14.49766 | 120.99966 | 139 ft | 141 kts | 68° |
| 2026-05-05 09:30 | 14.50199 | 121.00758 | 63 ft | 106 kts | 60° |
| 2026-05-05 09:31 | 14.50471 | 121.01251 | 58 ft | 54 kts | 60° |
| 2026-05-05 09:31 | 14.50635 | 121.01540 | 51 ft | 38 kts | 60° |
| 2026-05-05 09:31 | 14.50735 | 121.01691 | 48 ft | 22 kts | 42° |
| 2026-05-05 09:31 | 14.50818 | 121.01759 | 45 ft | 7 kts | 37° |
| 2026-05-05 09:32 | 14.50846 | 121.01781 | 43 ft | 5 kts | 30° |
| 2026-05-05 09:32 | 14.50906 | 121.01772 | 37 ft | 14 kts | 315° |
| 2026-05-05 09:32 | 14.50990 | 121.01681 | 34 ft | 20 kts | 316° |
| 2026-05-05 09:32 | 14.51105 | 121.01572 | 34 ft | 24 kts | 317° |
| 2026-05-05 09:33 | 14.51211 | 121.01459 | 36 ft | 14 kts | 314° |
| 2026-05-05 09:33 | 14.51274 | 121.01434 | 37 ft | 13 kts | 17° |
| 2026-05-05 09:33 | 14.51351 | 121.01508 | 37 ft | 16 kts | 48° |
| 2026-05-05 09:33 | 14.51427 | 121.01587 | 38 ft | 12 kts | 27° |
| 2026-05-05 09:34 | 14.51475 | 121.01576 | 39 ft | 8 kts | 312° |
| 2026-05-05 09:34 | 14.51529 | 121.01515 | 40 ft | 13 kts | 315° |
| 2026-05-05 09:34 | 14.51598 | 121.01446 | 41 ft | 8 kts | 315° |
| 2026-05-05 09:34 | 14.51603 | 121.01441 | 41 ft | 1 kts | 315° |
| 2026-05-05 09:35 | 14.51617 | 121.01426 | 42 ft | 5 kts | 316° |
| 2026-05-05 09:35 | 14.51660 | 121.01426 | 42 ft | 2 kts | 45° |
| 2026-05-05 09:35 | 14.51671 | 121.01437 | 42 ft | 2 kts | 46° |
| 2026-05-05 09:36 | 14.51684 | 121.01451 | 42 ft | 3 kts | 45° |
| 2026-05-05 09:36 | 14.51697 | 121.01464 | 42 ft | 1 kts | 45° |
| 2026-05-05 09:36 | 14.51700 | 121.01468 | 42 ft | 0 kts | 45° |